Time;durP1;ratioP1;P1;durP2;ratioP2;P2;SDS_P1;SDS_P2;PMS_P1;PMS_P2;Temp;Humidity;BMP_temperature;BMP_pressure;BME280_temperature;BME280_humidity;BME280_pressure;Samples;Min_cycle;Max_cycle;Signal;HPM_P1;HPM_P2
2022/02/14 00:02:13;;;;;;;23.30;11.82;;;-3.90;99.90;;;;;;5076577;28;20043;-79
2022/02/14 00:04:39;;;;;;;20.20;9.93;;;-4.00;99.90;;;;;;5076340;28;20071;-79
2022/02/14 00:07:04;;;;;;;25.15;10.23;;;-4.00;99.90;;;;;;5094313;28;20020;-79
2022/02/14 00:09:30;;;;;;;21.85;9.80;;;-4.00;99.90;;;;;;5076584;28;20094;-80
2022/02/14 00:11:56;;;;;;;22.25;11.05;;;-4.00;99.90;;;;;;5076071;28;20012;-79
2022/02/14 00:14:22;;;;;;;21.98;11.90;;;-4.00;99.90;;;;;;5076100;28;20028;-79
2022/02/14 00:16:48;;;;;;;23.10;11.05;;;-4.10;99.90;;;;;;5076000;28;20047;-79
2022/02/14 00:19:14;;;;;;;20.33;11.25;;;-4.10;99.90;;;;;;5094148;28;20376;-80
2022/02/14 00:21:39;;;;;;;19.20;10.57;;;-4.10;99.90;;;;;;5076223;28;20085;-80
2022/02/14 00:24:09;;;;;;;19.67;9.25;;;-4.10;99.90;;;;;;5076584;28;20024;-80
2022/02/14 00:26:36;;;;;;;22.50;10.82;;;-4.10;99.90;;;;;;5095406;28;20016;-79
2022/02/14 00:29:02;;;;;;;21.58;11.05;;;-4.10;99.90;;;;;;5075431;28;20475;-78
2022/02/14 00:31:28;;;;;;;16.65;9.52;;;-4.10;99.90;;;;;;5075512;28;20020;-81
2022/02/14 00:33:53;;;;;;;19.10;9.70;;;-4.10;99.90;;;;;;5074729;28;20042;-79
2022/02/14 00:36:19;;;;;;;19.58;10.25;;;-4.20;99.90;;;;;;5093651;28;20141;-79
2022/02/14 00:38:45;;;;;;;23.42;9.98;;;-4.20;99.90;;;;;;5075650;28;20036;-79
2022/02/14 00:41:10;;;;;;;21.45;10.48;;;-4.20;99.90;;;;;;5093616;28;20043;-78
2022/02/14 00:43:36;;;;;;;19.98;8.95;;;-4.20;99.90;;;;;;5075175;28;20383;-79
2022/02/14 00:46:03;;;;;;;18.58;9.73;;;-4.30;99.90;;;;;;5075322;28;20028;-79
2022/02/14 00:48:29;;;;;;;19.55;9.75;;;-4.30;99.90;;;;;;5075210;28;20030;-79
2022/02/14 00:50:55;;;;;;;21.25;9.98;;;-4.30;99.90;;;;;;5075403;28;20016;-79
2022/02/14 00:53:20;;;;;;;21.42;10.65;;;-4.30;99.90;;;;;;5075501;28;20032;-80
2022/02/14 00:55:47;;;;;;;15.90;9.25;;;-4.30;99.90;;;;;;5075335;28;20024;-80
2022/02/14 00:58:14;;;;;;;16.77;9.88;;;-4.30;99.90;;;;;;5075239;28;20041;-80
2022/02/14 01:00:40;;;;;;;22.10;10.68;;;-4.40;99.90;;;;;;5075160;28;20053;-80
2022/02/14 01:03:06;;;;;;;19.48;10.38;;;-4.40;99.90;;;;;;5075039;28;20455;-79
2022/02/14 01:05:32;;;;;;;21.17;10.63;;;-4.40;99.90;;;;;;5093142;28;20043;-80
2022/02/14 01:07:57;;;;;;;22.90;10.38;;;-4.40;99.90;;;;;;5075021;28;20462;-79
2022/02/14 01:10:23;;;;;;;17.75;9.35;;;-4.40;99.90;;;;;;5074911;28;20027;-80
2022/02/14 01:12:49;;;;;;;16.00;9.20;;;-4.40;99.90;;;;;;5093455;28;20348;-79
2022/02/14 01:15:15;;;;;;;18.02;9.25;;;-4.50;99.90;;;;;;5092994;28;20016;-79
2022/02/14 01:17:40;;;;;;;18.35;9.18;;;-4.60;99.90;;;;;;5074617;28;20048;-79
2022/02/14 01:20:08;;;;;;;16.25;8.75;;;-4.70;99.90;;;;;;5074735;28;20090;-79
2022/02/14 01:22:35;;;;;;;20.17;9.70;;;-4.70;99.90;;;;;;5074824;28;20027;-78
2022/02/14 01:25:02;;;;;;;19.77;10.35;;;-4.70;99.90;;;;;;5074787;28;20383;-78
2022/02/14 01:27:28;;;;;;;21.65;10.27;;;-4.70;99.90;;;;;;5092863;28;20696;-79
2022/02/14 01:29:53;;;;;;;22.25;11.02;;;-4.60;99.90;;;;;;5074647;28;20481;-80
2022/02/14 01:32:22;;;;;;;20.80;11.65;;;-4.70;99.90;;;;;;5074800;28;20028;-79
2022/02/14 01:34:52;;;;;;;19.10;10.52;;;-4.70;99.90;;;;;;5092834;28;20028;-79
2022/02/14 01:37:18;;;;;;;26.90;11.27;;;-4.70;99.90;;;;;;5074847;28;20449;-79
2022/02/14 01:39:44;;;;;;;20.27;11.40;;;-4.60;99.90;;;;;;5092568;28;20028;-80
2022/02/14 01:42:11;;;;;;;23.92;11.52;;;-4.60;99.90;;;;;;5092749;28;20039;-79
2022/02/14 01:44:43;;;;;;;23.30;10.85;;;-4.60;99.90;;;;;;5094455;28;20077;-81
2022/02/14 01:47:14;;;;;;;18.98;10.68;;;-4.70;99.90;;;;;;5081276;28;20036;-79
2022/02/14 01:49:41;;;;;;;22.13;11.25;;;-4.60;99.90;;;;;;5099080;28;20020;-80
2022/02/14 01:52:07;;;;;;;21.25;11.38;;;-4.70;99.90;;;;;;5081191;28;20024;-81
2022/02/14 01:54:35;;;;;;;22.70;12.90;;;-4.80;99.90;;;;;;5099290;28;20028;-79
2022/02/14 01:57:02;;;;;;;27.30;12.68;;;-4.70;99.90;;;;;;5081041;28;20485;-79
2022/02/14 01:59:27;;;;;;;17.45;11.25;;;-4.70;99.90;;;;;;5081472;28;20382;-79
2022/02/14 02:01:53;;;;;;;20.23;12.55;;;-4.70;99.90;;;;;;5080963;28;20089;-79
2022/02/14 02:04:19;;;;;;;29.73;13.73;;;-4.70;99.90;;;;;;5080958;28;20073;-79
2022/02/14 02:06:44;;;;;;;21.35;11.27;;;-4.80;99.90;;;;;;5080992;28;20045;-80
2022/02/14 02:09:10;;;;;;;22.60;11.90;;;-4.80;99.90;;;;;;5080725;28;20069;-80
2022/02/14 02:14:24;;;;;;;23.20;11.55;;;-4.80;99.90;;;;;;5099016;28;20023;-79
2022/02/14 02:16:50;;;;;;;23.50;11.50;;;-4.80;99.90;;;;;;5080605;28;20677;-79
2022/02/14 02:19:17;;;;;;;19.50;11.15;;;-4.90;99.90;;;;;;5080803;28;20438;-79
2022/02/14 02:21:47;;;;;;;24.23;10.65;;;-4.90;99.90;;;;;;5080787;28;20036;-79
2022/02/14 02:24:21;;;;;;;18.52;9.90;;;-4.90;99.90;;;;;;5080919;28;20016;-80
2022/02/14 02:27:02;;;;;;;19.80;9.63;;;-5.00;99.90;;;;;;5080690;28;20360;-79
2022/02/14 02:29:28;;;;;;;19.13;9.68;;;-5.00;99.90;;;;;;5080732;28;20024;-79
2022/02/14 02:31:55;;;;;;;21.05;9.90;;;-5.00;99.90;;;;;;5080473;28;20020;-78
2022/02/14 02:34:21;;;;;;;18.70;10.13;;;-5.10;99.90;;;;;;5080360;28;20036;-78
2022/02/14 02:36:52;;;;;;;22.13;11.25;;;-5.10;99.90;;;;;;5080686;28;20394;-79
2022/02/14 02:39:18;;;;;;;18.55;9.00;;;-5.10;99.90;;;;;;5080573;28;20024;-79
2022/02/14 02:41:45;;;;;;;20.73;10.43;;;-5.10;99.90;;;;;;5080742;28;20363;-80
2022/02/14 02:44:12;;;;;;;19.00;9.13;;;-5.10;99.90;;;;;;5080971;28;20019;-80
2022/02/14 02:46:38;;;;;;;21.05;9.82;;;-5.10;99.90;;;;;;5080939;28;20386;-80
2022/02/14 02:49:15;;;;;;;18.70;9.75;;;-5.10;99.90;;;;;;5080687;28;20016;-79
2022/02/14 02:51:44;;;;;;;17.92;9.55;;;-5.10;99.90;;;;;;5098945;28;20024;-80
2022/02/14 02:54:11;;;;;;;22.08;11.07;;;-5.20;99.90;;;;;;5080580;28;20055;-79
2022/02/14 02:56:41;;;;;;;18.60;9.73;;;-5.30;99.90;;;;;;5078301;28;20071;-79
2022/02/14 02:59:10;;;;;;;18.98;10.25;;;-5.30;99.90;;;;;;5095773;28;20111;-80
2022/02/14 03:01:37;;;;;;;17.98;10.40;;;-5.40;99.90;;;;;;5095419;28;20769;-80
2022/02/14 03:04:05;;;;;;;21.38;11.10;;;-5.40;99.90;;;;;;5077420;28;20024;-82
2022/02/14 03:06:31;;;;;;;20.80;11.05;;;-5.40;99.90;;;;;;5077297;28;20042;-79
2022/02/14 03:08:57;;;;;;;23.98;10.48;;;-5.40;99.90;;;;;;5095292;28;20020;-79
2022/02/14 03:11:24;;;;;;;19.95;10.35;;;-5.50;99.90;;;;;;5095351;28;20413;-80
2022/02/14 03:13:50;;;;;;;22.42;10.85;;;-5.50;99.90;;;;;;5077021;28;20111;-78
2022/02/14 03:16:17;;;;;;;15.57;9.25;;;-5.50;99.90;;;;;;5077300;28;20031;-79
2022/02/14 03:18:43;;;;;;;20.05;10.55;;;-5.40;99.90;;;;;;5077235;28;20048;-78
2022/02/14 03:21:10;;;;;;;17.33;9.13;;;-5.50;99.90;;;;;;5076947;28;20471;-79
2022/02/14 03:23:36;;;;;;;20.92;10.13;;;-5.50;99.90;;;;;;5095055;28;20027;-79
2022/02/14 03:26:02;;;;;;;20.00;9.57;;;-5.50;99.90;;;;;;5076768;28;20024;-78
2022/02/14 03:28:28;;;;;;;18.55;10.40;;;-5.50;99.90;;;;;;5076664;28;20012;-79
2022/02/14 03:30:54;;;;;;;19.52;10.45;;;-5.50;99.90;;;;;;5094723;28;20024;-80
2022/02/14 03:33:20;;;;;;;17.50;9.80;;;-5.50;99.90;;;;;;5095032;28;20024;-79
2022/02/14 03:35:47;;;;;;;21.23;10.38;;;-5.50;99.90;;;;;;5076613;28;20028;-80
2022/02/14 03:38:13;;;;;;;17.20;9.82;;;-5.50;99.90;;;;;;5094701;28;20086;-80
2022/02/14 03:40:38;;;;;;;21.05;9.45;;;-5.50;99.90;;;;;;5094533;28;20032;-80
2022/02/14 03:43:06;;;;;;;19.42;10.50;;;-5.50;99.90;;;;;;5082181;28;20035;-80
2022/02/14 03:45:33;;;;;;;21.05;9.45;;;-5.50;99.90;;;;;;5104180;28;20016;-80
2022/02/14 03:47:59;;;;;;;21.35;9.68;;;-5.50;99.90;;;;;;5085443;28;20046;-82
2022/02/14 03:50:25;;;;;;;17.13;10.65;;;-5.60;99.90;;;;;;5086486;28;20077;-82
2022/02/14 03:52:51;;;;;;;21.73;10.70;;;-5.60;99.90;;;;;;5095762;28;20024;-81
2022/02/14 03:55:17;;;;;;;17.70;9.30;;;-5.60;99.90;;;;;;5076891;28;20459;-81
2022/02/14 03:57:43;;;;;;;22.65;11.13;;;-5.60;99.90;;;;;;5095219;28;20024;-79
2022/02/14 04:00:11;;;;;;;16.90;9.85;;;-5.60;99.90;;;;;;5076771;28;20021;-80
2022/02/14 04:02:37;;;;;;;18.52;9.60;;;-5.50;99.90;;;;;;5094684;28;20497;-80
2022/02/14 04:05:04;;;;;;;19.00;9.52;;;-5.60;99.90;;;;;;5076156;28;20378;-80
2022/02/14 04:07:29;;;;;;;21.33;10.13;;;-5.60;99.90;;;;;;5094166;28;20024;-79
2022/02/14 04:09:56;;;;;;;17.15;10.55;;;-5.60;99.90;;;;;;5094200;28;20107;-80
2022/02/14 04:12:22;;;;;;;17.90;9.85;;;-5.70;99.90;;;;;;5094103;28;20097;-79
2022/02/14 04:14:48;;;;;;;19.67;10.32;;;-5.70;99.90;;;;;;5075821;28;20115;-79
2022/02/14 04:17:14;;;;;;;20.60;9.20;;;-5.80;99.90;;;;;;5093693;28;20128;-80
2022/02/14 04:19:40;;;;;;;19.98;10.10;;;-5.70;99.90;;;;;;5076200;28;20020;-79
2022/02/14 04:22:06;;;;;;;19.77;10.43;;;-5.70;99.90;;;;;;5094183;28;20032;-79
2022/02/14 04:24:32;;;;;;;22.00;10.48;;;-5.80;99.90;;;;;;5093914;28;20024;-80
2022/02/14 04:26:58;;;;;;;18.92;9.75;;;-5.80;99.90;;;;;;5093794;28;20081;-81
2022/02/14 04:29:24;;;;;;;14.48;9.40;;;-5.80;99.90;;;;;;5075713;28;20020;-79
2022/02/14 04:31:50;;;;;;;18.08;10.00;;;-5.80;99.90;;;;;;5075799;28;20024;-80
2022/02/14 04:34:18;;;;;;;18.77;9.23;;;-5.80;99.90;;;;;;5093795;28;20034;-79
2022/02/14 04:36:45;;;;;;;21.23;9.65;;;-5.80;99.90;;;;;;5075431;28;20399;-78
2022/02/14 04:39:11;;;;;;;23.40;9.65;;;-5.90;99.90;;;;;;5093371;28;20016;-79
2022/02/14 04:41:36;;;;;;;20.08;10.63;;;-5.90;99.90;;;;;;5093682;28;20043;-80
2022/02/14 04:44:02;;;;;;;15.25;8.52;;;-5.90;99.90;;;;;;5075615;28;20028;-79
2022/02/14 04:46:28;;;;;;;14.32;9.90;;;-5.90;99.90;;;;;;5093446;28;20017;-79
2022/02/14 04:48:54;;;;;;;14.70;8.27;;;-5.90;99.90;;;;;;5093699;28;20027;-78
2022/02/14 04:51:20;;;;;;;19.67;9.98;;;-5.90;99.90;;;;;;5093842;28;20584;-80
2022/02/14 04:53:45;;;;;;;20.33;10.27;;;-6.00;99.90;;;;;;5093444;28;20094;-79
2022/02/14 04:56:11;;;;;;;20.33;11.20;;;-6.00;99.90;;;;;;5075403;28;20051;-79
2022/02/14 04:58:37;;;;;;;21.38;10.32;;;-6.00;99.90;;;;;;5075163;28;20031;-78
2022/02/14 05:01:02;;;;;;;24.27;12.60;;;-6.00;99.90;;;;;;5093258;28;20081;-79
2022/02/14 05:03:28;;;;;;;21.98;11.65;;;-6.10;99.90;;;;;;5074968;28;20461;-79
2022/02/14 05:05:54;;;;;;;22.25;11.23;;;-6.00;99.90;;;;;;5093155;28;20016;-79
2022/02/14 05:08:20;;;;;;;28.42;12.88;;;-6.00;99.90;;;;;;5075354;28;20027;-79
2022/02/14 05:10:46;;;;;;;20.25;11.25;;;-6.00;99.90;;;;;;5075271;28;20095;-79
2022/02/14 05:13:11;;;;;;;23.95;11.18;;;-5.90;99.90;;;;;;5093055;28;20035;-79
2022/02/14 05:15:37;;;;;;;22.08;10.85;;;-5.90;99.90;;;;;;5075196;28;20021;-79
2022/02/14 05:18:03;;;;;;;26.75;12.15;;;-5.90;99.90;;;;;;5074951;28;20040;-80
2022/02/14 05:20:29;;;;;;;26.48;12.55;;;-5.90;99.90;;;;;;5074669;28;20454;-80
2022/02/14 05:22:55;;;;;;;25.77;12.90;;;-6.00;99.90;;;;;;5092997;28;20024;-80
2022/02/14 05:25:21;;;;;;;31.90;12.95;;;-6.00;99.90;;;;;;5074591;28;20039;-80
2022/02/14 05:27:46;;;;;;;25.02;11.95;;;-6.00;99.90;;;;;;5075166;28;20497;-80
2022/02/14 05:30:12;;;;;;;22.75;12.25;;;-6.00;99.90;;;;;;5074972;28;20034;-79
2022/02/14 05:32:38;;;;;;;22.73;11.93;;;-6.00;99.90;;;;;;5074840;28;20024;-79
2022/02/14 05:35:04;;;;;;;28.27;13.75;;;-6.00;99.90;;;;;;5092891;28;20024;-79
2022/02/14 05:37:29;;;;;;;27.77;12.45;;;-6.00;99.90;;;;;;5074737;28;20024;-79
2022/02/14 05:39:55;;;;;;;21.75;13.38;;;-6.00;99.90;;;;;;5092857;28;20129;-79
2022/02/14 05:42:21;;;;;;;29.23;12.75;;;-6.00;99.90;;;;;;5074554;28;20130;-79
2022/02/14 05:44:46;;;;;;;32.00;13.07;;;-6.00;99.90;;;;;;5074656;28;20030;-79
2022/02/14 05:47:12;;;;;;;27.42;13.10;;;-6.00;99.90;;;;;;5075098;28;20481;-79
2022/02/14 05:49:38;;;;;;;34.95;14.27;;;-6.00;99.90;;;;;;5074719;28;20030;-79
2022/02/14 05:52:04;;;;;;;40.38;16.70;;;-6.00;99.90;;;;;;5074667;28;20028;-80
2022/02/14 05:54:30;;;;;;;30.85;14.30;;;-6.00;99.90;;;;;;5074521;28;20052;-79
2022/02/14 05:56:57;;;;;;;23.17;12.10;;;-6.00;99.90;;;;;;5074584;28;20063;-79
2022/02/14 05:59:23;;;;;;;26.90;12.48;;;-6.00;99.90;;;;;;5074791;28;20058;-79
2022/02/14 06:01:49;;;;;;;18.85;10.95;;;-6.00;99.90;;;;;;5074378;28;20063;-78
2022/02/14 06:04:15;;;;;;;20.20;10.88;;;-6.00;99.90;;;;;;5074348;28;20044;-79
2022/02/14 06:06:41;;;;;;;18.10;9.13;;;-6.00;99.90;;;;;;5092400;28;20024;-79
2022/02/14 06:09:07;;;;;;;20.60;10.43;;;-6.00;99.90;;;;;;5074208;28;20107;-79
2022/02/14 06:11:33;;;;;;;15.75;9.10;;;-6.00;99.90;;;;;;5092484;28;20030;-78
2022/02/14 06:13:59;;;;;;;18.65;10.27;;;-6.00;99.90;;;;;;5074227;28;20016;-78
2022/02/14 06:16:25;;;;;;;22.52;10.85;;;-6.10;99.90;;;;;;5074036;28;20042;-78
2022/02/14 06:18:51;;;;;;;24.88;11.13;;;-6.10;99.90;;;;;;5092292;28;20055;-79
2022/02/14 06:21:16;;;;;;;17.65;10.35;;;-6.10;99.90;;;;;;5073861;28;20058;-79
2022/02/14 06:23:43;;;;;;;19.10;10.82;;;-6.00;99.90;;;;;;5092578;28;20103;-80
2022/02/14 06:26:09;;;;;;;25.15;12.55;;;-6.00;99.90;;;;;;5075765;28;20111;-82
2022/02/14 06:28:38;;;;;;;25.52;12.02;;;-5.00;99.90;;;;;;5096786;28;20020;-81
2022/02/14 06:31:08;;;;;;;22.73;12.25;;;-5.10;99.90;;;;;;5075791;28;20024;-82
2022/02/14 06:33:35;;;;;;;23.15;12.25;;;-5.20;99.90;;;;;;5097080;28;20008;-79
2022/02/14 06:36:00;;;;;;;23.17;13.10;;;-5.40;99.90;;;;;;5078784;28;20032;-80
2022/02/14 06:38:27;;;;;;;28.50;11.93;;;-5.50;99.90;;;;;;5096615;28;20023;-79
2022/02/14 06:40:53;;;;;;;22.83;11.38;;;-5.50;99.90;;;;;;5079199;28;20028;-81
2022/02/14 06:43:18;;;;;;;24.83;12.52;;;-5.50;99.90;;;;;;5079006;28;20069;-80
2022/02/14 06:45:44;;;;;;;29.40;13.02;;;-5.60;99.90;;;;;;5096866;28;20032;-80
2022/02/14 06:48:09;;;;;;;29.05;13.70;;;-5.50;99.90;;;;;;5078762;28;20054;-81
2022/02/14 06:50:35;;;;;;;23.67;13.35;;;-5.50;99.90;;;;;;5078222;28;20020;-79
2022/02/14 06:53:01;;;;;;;28.35;14.15;;;-5.40;99.90;;;;;;5077996;28;20024;-77
2022/02/14 06:55:27;;;;;;;28.40;13.43;;;-5.40;99.90;;;;;;5078171;28;20016;-79
2022/02/14 06:57:53;;;;;;;25.90;13.73;;;-5.40;99.90;;;;;;5095893;28;20028;-79
2022/02/14 07:00:18;;;;;;;25.48;12.93;;;-5.30;99.90;;;;;;5096130;28;20059;-79
2022/02/14 07:02:44;;;;;;;23.85;13.57;;;-5.20;99.90;;;;;;5077655;28;20124;-79
2022/02/14 07:05:22;;;;;;;26.60;14.48;;;-5.10;99.90;;;;;;5096119;28;20024;-80
2022/02/14 07:07:49;;;;;;;22.48;12.48;;;-5.10;99.90;;;;;;5078238;28;20020;-80
2022/02/14 07:10:15;;;;;;;35.10;13.65;;;-5.10;99.90;;;;;;5095470;28;20017;-79
2022/02/14 07:12:42;;;;;;;32.10;13.90;;;-5.00;99.90;;;;;;5077425;28;20100;-79
2022/02/14 07:15:09;;;;;;;32.20;14.85;;;-4.90;99.90;;;;;;5077171;28;20110;-79
2022/02/14 07:17:35;;;;;;;30.30;15.75;;;-4.90;99.90;;;;;;5077198;28;20126;-80
2022/02/14 07:20:01;;;;;;;28.75;15.00;;;-4.80;99.90;;;;;;5095866;28;20036;-81
2022/02/14 07:22:27;;;;;;;27.70;14.18;;;-4.70;99.90;;;;;;5077428;28;20032;-79
2022/02/14 07:24:52;;;;;;;28.38;15.25;;;-4.60;99.90;;;;;;5095596;28;20459;-80
2022/02/14 07:27:18;;;;;;;27.20;14.30;;;-4.60;99.90;;;;;;5077351;28;20020;-79
2022/02/14 07:29:43;;;;;;;28.85;15.15;;;-4.50;99.90;;;;;;5077729;28;20021;-79
2022/02/14 07:32:09;;;;;;;28.92;14.68;;;-4.50;99.90;;;;;;5077246;28;20461;-79
2022/02/14 07:34:35;;;;;;;27.77;14.68;;;-4.40;99.90;;;;;;5077167;28;20498;-80
2022/02/14 07:37:02;;;;;;;33.05;16.85;;;-4.40;99.90;;;;;;5076942;28;20051;-79
2022/02/14 07:39:33;;;;;;;34.97;17.98;;;-4.20;99.90;;;;;;5077043;28;20344;-78
2022/02/14 07:41:59;;;;;;;38.42;16.98;;;-4.20;99.90;;;;;;5094547;28;20035;-79
2022/02/14 07:44:25;;;;;;;29.40;16.35;;;-4.10;99.90;;;;;;5076758;28;20405;-80
2022/02/14 07:46:52;;;;;;;37.40;16.92;;;-4.00;99.90;;;;;;5095064;28;20463;-79
2022/02/14 07:49:19;;;;;;;31.23;17.05;;;-3.90;99.90;;;;;;5076712;28;20025;-79
2022/02/14 07:51:45;;;;;;;33.05;16.08;;;-3.80;99.90;;;;;;5076672;28;20137;-79
2022/02/14 07:54:11;;;;;;;27.35;14.90;;;-3.80;99.90;;;;;;5076646;28;20521;-79
2022/02/14 07:56:37;;;;;;;31.02;14.45;;;-3.70;99.90;;;;;;5094986;28;20462;-80
2022/02/14 07:59:04;;;;;;;26.90;14.73;;;-3.60;99.90;;;;;;5076656;28;20518;-80
2022/02/14 08:01:30;;;;;;;29.50;15.35;;;-3.50;99.90;;;;;;5077280;28;20475;-80
2022/02/14 08:03:56;;;;;;;32.22;15.95;;;-3.40;99.90;;;;;;5095080;28;20108;-79
2022/02/14 08:06:22;;;;;;;27.38;14.65;;;-3.30;99.90;;;;;;5076595;28;20031;-77
2022/02/14 08:08:48;;;;;;;31.35;15.57;;;-3.20;99.90;;;;;;5094983;28;20042;-79
2022/02/14 08:11:13;;;;;;;39.92;15.88;;;-3.10;99.90;;;;;;5076233;28;20057;-80
2022/02/14 08:13:39;;;;;;;25.73;15.38;;;-3.00;99.90;;;;;;5076378;28;20024;-80
2022/02/14 08:16:05;;;;;;;28.95;14.68;;;-3.00;99.90;;;;;;5076383;28;20066;-79
2022/02/14 08:18:30;;;;;;;33.15;15.40;;;-2.90;99.90;;;;;;5094296;28;20056;-80
2022/02/14 08:20:57;;;;;;;31.50;15.18;;;-2.80;99.90;;;;;;5094166;28;20112;-80
2022/02/14 08:23:22;;;;;;;22.95;13.32;;;-2.70;99.90;;;;;;5075803;28;20028;-81
2022/02/14 08:25:48;;;;;;;25.92;14.38;;;-2.60;99.90;;;;;;5075986;28;20027;-79
2022/02/14 08:28:16;;;;;;;22.92;13.93;;;-2.50;99.90;;;;;;5075690;28;20114;-80
2022/02/14 08:30:42;;;;;;;29.58;16.25;;;-2.40;99.90;;;;;;5075688;28;20039;-80
2022/02/14 08:33:10;;;;;;;27.13;15.40;;;-2.20;99.90;;;;;;5093718;28;20016;-79
2022/02/14 08:35:36;;;;;;;28.08;15.95;;;-2.10;99.90;;;;;;5075690;28;20156;-79
2022/02/14 08:38:02;;;;;;;26.10;15.20;;;-2.00;99.90;;;;;;5075571;28;20046;-79
2022/02/14 08:40:28;;;;;;;33.05;16.15;;;-1.80;99.90;;;;;;5093830;28;20041;-80
2022/02/14 08:42:54;;;;;;;33.78;16.33;;;-1.70;99.90;;;;;;5075653;28;20024;-80
2022/02/14 08:45:20;;;;;;;30.17;16.45;;;-1.60;99.90;;;;;;5075766;28;20468;-80
2022/02/14 08:47:46;;;;;;;33.58;15.20;;;-1.50;99.90;;;;;;5093571;28;20020;-79
2022/02/14 08:50:12;;;;;;;28.48;15.35;;;-1.40;99.90;;;;;;5075373;28;20024;-79
2022/02/14 08:52:37;;;;;;;31.45;15.90;;;-1.30;99.90;;;;;;5093459;28;20047;-80
2022/02/14 08:55:04;;;;;;;28.63;14.75;;;-1.20;99.90;;;;;;5074432;28;20028;-79
2022/02/14 08:57:30;;;;;;;25.58;13.35;;;-1.10;99.90;;;;;;5075389;28;20035;-80
2022/02/14 08:59:55;;;;;;;26.02;15.60;;;-1.00;99.90;;;;;;5075987;28;20024;-79
2022/02/14 09:02:21;;;;;;;27.25;14.90;;;-0.80;99.90;;;;;;5077475;28;20406;-83
2022/02/14 09:04:46;;;;;;;28.95;15.05;;;-0.70;99.90;;;;;;5087837;28;20020;-80
2022/02/14 09:07:12;;;;;;;31.33;16.02;;;-0.60;99.90;;;;;;5104540;28;20081;-81
2022/02/14 09:09:38;;;;;;;54.78;25.48;;;-0.50;99.90;;;;;;5078828;28;20024;-84
2022/02/14 09:12:04;;;;;;;63.72;28.88;;;-0.40;99.90;;;;;;5076428;28;20481;-83
2022/02/14 09:14:31;;;;;;;46.03;23.92;;;-0.30;99.90;;;;;;5075863;28;20026;-82
2022/02/14 09:16:57;;;;;;;37.50;20.88;;;-0.20;99.90;;;;;;5075200;28;20040;-81
2022/02/14 09:19:23;;;;;;;27.98;14.90;;;-0.10;99.90;;;;;;5093657;28;20023;-79
2022/02/14 09:21:48;;;;;;;28.63;17.92;;;0.00;99.90;;;;;;5075200;28;20505;-80
2022/02/14 09:24:14;;;;;;;33.92;16.85;;;0.10;99.90;;;;;;5093202;28;20413;-79
2022/02/14 09:26:41;;;;;;;26.90;19.05;;;0.20;99.90;;;;;;5093303;28;20496;-81
2022/02/14 09:29:08;;;;;;;27.92;17.58;;;0.30;99.90;;;;;;5075082;28;20024;-81
2022/02/14 09:31:35;;;;;;;26.38;16.98;;;0.30;99.90;;;;;;5075501;28;20024;-86
2022/02/14 09:34:01;;;;;;;33.95;20.35;;;0.50;99.90;;;;;;5074887;28;20050;-81
2022/02/14 09:36:27;;;;;;;28.23;17.13;;;0.60;99.90;;;;;;5075561;28;20062;-80
2022/02/14 09:38:53;;;;;;;24.67;15.02;;;0.70;99.90;;;;;;5093379;28;20173;-79
2022/02/14 09:41:19;;;;;;;24.90;14.07;;;0.80;99.90;;;;;;5074912;28;20550;-79
2022/02/14 09:43:46;;;;;;;37.45;16.95;;;0.90;99.90;;;;;;5092551;28;20038;-82
2022/02/14 09:46:12;;;;;;;23.65;14.98;;;1.00;99.90;;;;;;5074756;28;20036;-84
2022/02/14 09:48:40;;;;;;;26.50;15.02;;;1.10;99.90;;;;;;5093056;28;20023;-79
2022/02/14 09:51:07;;;;;;;25.58;15.25;;;1.30;99.90;;;;;;5093306;28;20024;-81
2022/02/14 09:53:33;;;;;;;27.15;16.63;;;1.40;99.90;;;;;;5074990;28;20025;-80
2022/02/14 09:55:58;;;;;;;26.63;13.07;;;1.50;99.90;;;;;;5073902;28;20048;-78
2022/02/14 09:58:24;;;;;;;23.27;14.15;;;1.70;99.90;;;;;;5073892;28;20356;-78
2022/02/14 10:00:50;;;;;;;20.73;12.02;;;1.70;99.90;;;;;;5092167;28;20035;-78
2022/02/14 10:03:19;;;;;;;31.08;15.10;;;1.80;99.90;;;;;;5073880;28;20024;-74
2022/02/14 10:05:53;;;;;;;28.40;14.73;;;2.00;99.90;;;;;;5074763;28;20023;-77
2022/02/14 10:08:28;;;;;;;21.55;13.18;;;2.20;99.90;;;;;;5077621;28;20021;-76
2022/02/14 10:11:09;;;;;;;22.52;13.65;;;2.30;99.90;;;;;;5077576;28;20028;-75
2022/02/14 10:13:36;;;;;;;23.50;12.77;;;2.30;99.90;;;;;;5095923;28;20381;-79
2022/02/14 10:16:07;;;;;;;27.33;13.77;;;2.50;99.90;;;;;;5095926;28;20047;-80
2022/02/14 10:18:34;;;;;;;28.13;13.80;;;2.60;99.70;;;;;;5095710;28;20055;-80
2022/02/14 10:21:26;;;;;;;27.75;15.05;;;2.70;99.70;;;;;;5096011;28;20035;-77
2022/02/14 10:24:10;;;;;;;20.10;11.10;;;2.80;99.10;;;;;;5077574;28;20375;-79
2022/02/14 10:26:36;;;;;;;21.58;11.30;;;2.90;98.30;;;;;;5077694;28;20486;-75
2022/02/14 10:29:14;;;;;;;19.05;10.02;;;3.10;97.80;;;;;;5095652;28;20097;-77
2022/02/14 10:31:44;;;;;;;18.98;10.48;;;3.20;96.40;;;;;;5095748;28;20020;-78
2022/02/14 10:34:11;;;;;;;16.95;10.45;;;3.30;96.30;;;;;;5095831;28;20020;-76
2022/02/14 10:36:40;;;;;;;27.27;13.13;;;3.40;96.30;;;;;;5095650;28;20016;-76
2022/02/14 10:39:16;;;;;;;13.07;10.02;;;3.40;96.30;;;;;;5095585;28;20024;-78
2022/02/14 10:41:45;;;;;;;16.55;9.38;;;3.50;95.80;;;;;;5078413;28;20036;-85
2022/02/14 10:45:07;;;;;;;11.80;7.43;;;3.70;94.20;;;;;;5091389;28;20038;-86
2022/02/14 10:47:10;;;;;;;22.40;11.13;;;3.80;90.70;;;;;;5098815;28;20039;-83
2022/02/14 10:49:37;;;;;;;15.77;8.98;;;4.00;89.80;;;;;;5080016;28;20447;-84
2022/02/14 10:52:05;;;;;;;14.95;8.07;;;4.00;88.00;;;;;;5079570;28;20024;-84
2022/02/14 10:54:36;;;;;;;14.40;7.90;;;4.20;86.50;;;;;;5079689;28;20028;-81
2022/02/14 10:57:02;;;;;;;13.82;7.28;;;4.30;85.70;;;;;;5096319;28;20482;-81
2022/02/14 10:59:29;;;;;;;11.23;7.05;;;4.40;84.20;;;;;;5078275;28;20031;-81
2022/02/14 11:01:56;;;;;;;10.80;6.28;;;4.40;84.90;;;;;;5078566;28;20376;-81
2022/02/14 11:04:22;;;;;;;10.98;6.22;;;4.50;85.30;;;;;;5078019;28;20035;-81
2022/02/14 11:06:48;;;;;;;8.32;6.07;;;4.50;86.00;;;;;;5078707;28;20032;-81
2022/02/14 11:09:15;;;;;;;12.15;6.65;;;4.60;84.00;;;;;;5078693;28;20026;-82
2022/02/14 11:11:45;;;;;;;11.73;7.20;;;4.70;83.90;;;;;;5096396;28;20483;-82
2022/02/14 11:14:11;;;;;;;9.88;6.32;;;4.80;82.90;;;;;;5078268;28;20030;-81
2022/02/14 11:16:39;;;;;;;15.50;7.80;;;4.80;81.80;;;;;;5078252;28;20103;-81
2022/02/14 11:19:08;;;;;;;13.88;7.93;;;4.90;83.70;;;;;;5077613;28;20462;-81
2022/02/14 11:21:34;;;;;;;16.13;8.45;;;5.00;83.90;;;;;;5078085;28;20939;-84
2022/02/14 11:24:13;;;;;;;11.00;6.90;;;5.00;83.00;;;;;;5078457;28;20088;-83
2022/02/14 11:27:03;;;;;;;11.25;7.78;;;5.00;81.90;;;;;;5096306;28;20077;-81
2022/02/14 11:29:41;;;;;;;22.85;11.27;;;5.10;82.80;;;;;;5096285;28;20020;-83
2022/02/14 11:32:21;;;;;;;13.88;7.68;;;5.10;81.90;;;;;;5078459;28;20352;-81
2022/02/14 11:34:56;;;;;;;18.42;10.23;;;5.20;82.30;;;;;;5077877;28;20486;-82
2022/02/14 11:37:23;;;;;;;35.58;18.00;;;5.30;81.30;;;;;;5076575;28;20024;-77
2022/02/14 11:39:48;;;;;;;43.95;21.90;;;5.40;83.80;;;;;;5075636;28;20028;-76
2022/02/14 11:42:14;;;;;;;25.33;14.27;;;5.50;81.60;;;;;;5094162;28;20492;-77
2022/02/14 11:44:42;;;;;;;16.73;8.25;;;5.60;81.50;;;;;;5093908;28;20028;-77
2022/02/14 11:47:10;;;;;;;10.73;7.03;;;5.70;80.60;;;;;;5076338;28;20052;-79
2022/02/14 11:49:45;;;;;;;21.08;12.48;;;5.70;79.50;;;;;;5076131;28;20543;-81
2022/02/14 11:52:39;;;;;;;15.52;8.52;;;5.70;80.40;;;;;;5076516;28;20067;-78
2022/02/14 11:55:08;;;;;;;17.90;8.95;;;5.70;80.30;;;;;;5075869;28;20024;-79
2022/02/14 11:57:46;;;;;;;14.13;6.68;;;5.80;78.50;;;;;;5076337;28;20024;-79
2022/02/14 12:00:15;;;;;;;15.18;7.53;;;5.90;78.90;;;;;;5076083;28;20027;-79
2022/02/14 12:02:54;;;;;;;11.13;6.57;;;6.00;78.40;;;;;;5076005;28;20032;-79
2022/02/14 12:05:48;;;;;;;14.50;7.05;;;6.10;77.50;;;;;;5075896;28;20118;-78
2022/02/14 12:08:15;;;;;;;10.50;6.32;;;6.20;77.00;;;;;;5076023;28;20024;-79
2022/02/14 12:10:50;;;;;;;10.20;6.22;;;6.20;75.80;;;;;;5093920;28;20038;-79
2022/02/14 12:13:18;;;;;;;15.40;6.07;;;6.20;75.80;;;;;;5094101;28;20348;-80
2022/02/14 12:21:04;;;;;;;11.13;5.57;;;6.50;75.10;;;;;;5093721;28;20078;-79
2022/02/14 12:23:32;;;;;;;10.15;6.03;;;6.50;75.30;;;;;;5093788;28;20474;-80
2022/02/14 12:25:59;;;;;;;13.50;6.13;;;6.60;74.80;;;;;;5075451;28;20080;-79
2022/02/14 12:28:27;;;;;;;9.27;6.75;;;6.70;74.30;;;;;;5075080;28;20013;-79
2022/02/14 12:30:56;;;;;;;15.15;6.72;;;6.80;72.80;;;;;;5075121;28;20026;-79
2022/02/14 12:33:23;;;;;;;11.20;6.35;;;6.90;73.10;;;;;;5075438;28;20023;-79
2022/02/14 12:35:54;;;;;;;8.40;4.88;;;7.00;72.40;;;;;;5074295;28;20111;-80
2022/02/14 12:38:25;;;;;;;11.23;6.72;;;7.00;70.50;;;;;;5075070;28;20027;-79
2022/02/14 12:41:09;;;;;;;18.27;10.93;;;7.10;71.50;;;;;;5093426;28;20038;-77
2022/02/14 12:43:46;;;;;;;12.35;6.60;;;7.20;71.70;;;;;;5075031;28;20031;-79